sensor_id;sensor_type;location;lat;lon;timestamp;pressure;altitude;pressure_sealevel;temperature;humidity
9277;BME280;4676;42.678;23.244;2023-10-31T14:51:11;93683.38;;;18.16;70.86
9277;BME280;4676;42.678;23.244;2023-10-31T14:53:38;93694.31;;;17.95;73.46
9277;BME280;4676;42.678;23.244;2023-10-31T14:56:05;93688.56;;;17.81;75.65
9277;BME280;4676;42.678;23.244;2023-10-31T14:58:32;93686.34;;;17.65;75.85
9277;BME280;4676;42.678;23.244;2023-10-31T15:00:58;93682.44;;;17.48;77.01
9277;BME280;4676;42.678;23.244;2023-10-31T15:03:25;93677.41;;;17.47;77.13
9277;BME280;4676;42.678;23.244;2023-10-31T15:05:52;93676.44;;;17.37;76.40
9277;BME280;4676;42.678;23.244;2023-10-31T15:08:20;93680.00;;;17.23;76.55
9277;BME280;4676;42.678;23.244;2023-10-31T15:10:47;93677.63;;;17.09;79.10
9277;BME280;4676;42.678;23.244;2023-10-31T15:13:14;93679.31;;;16.97;80.88
9277;BME280;4676;42.678;23.244;2023-10-31T15:15:41;93690.91;;;16.90;80.68
9277;BME280;4676;42.678;23.244;2023-10-31T15:18:08;93642.13;;;16.44;77.14
9277;BME280;4676;42.678;23.244;2023-10-31T15:20:35;93662.03;;;16.65;77.83
9277;BME280;4676;42.678;23.244;2023-10-31T15:23:02;93677.06;;;16.69;77.10
9277;BME280;4676;42.678;23.244;2023-10-31T15:25:30;93672.16;;;16.66;78.73
9277;BME280;4676;42.678;23.244;2023-10-31T15:27:56;93667.53;;;16.71;77.41
9277;BME280;4676;42.678;23.244;2023-10-31T15:30:23;93669.91;;;16.74;78.44
9277;BME280;4676;42.678;23.244;2023-10-31T15:32:50;93665.31;;;16.90;72.21
9277;BME280;4676;42.678;23.244;2023-10-31T15:35:16;93671.41;;;16.77;75.46
9277;BME280;4676;42.678;23.244;2023-10-31T15:37:43;93687.53;;;16.66;77.88
9277;BME280;4676;42.678;23.244;2023-10-31T15:40:11;93684.38;;;16.63;78.81
9277;BME280;4676;42.678;23.244;2023-10-31T15:42:39;93676.63;;;16.75;74.47
9277;BME280;4676;42.678;23.244;2023-10-31T15:45:07;93682.88;;;16.71;75.20
9277;BME280;4676;42.678;23.244;2023-10-31T15:47:33;93675.44;;;16.68;79.02
9277;BME280;4676;42.678;23.244;2023-10-31T15:50:00;93662.47;;;16.82;76.97
9277;BME280;4676;42.678;23.244;2023-10-31T15:52:27;93663.53;;;16.80;77.13
9277;BME280;4676;42.678;23.244;2023-10-31T15:54:53;93665.38;;;17.02;74.02
9277;BME280;4676;42.678;23.244;2023-10-31T15:57:20;93669.59;;;17.14;72.05
9277;BME280;4676;42.678;23.244;2023-10-31T15:59:48;93684.47;;;17.32;70.55
9277;BME280;4676;42.678;23.244;2023-10-31T16:02:15;93687.88;;;17.44;69.03
9277;BME280;4676;42.678;23.244;2023-10-31T16:04:42;93694.78;;;17.55;68.14
9277;BME280;4676;42.678;23.244;2023-10-31T16:07:10;93693.97;;;17.89;65.57
9277;BME280;4676;42.678;23.244;2023-10-31T16:09:36;93695.25;;;17.83;67.97
9277;BME280;4676;42.678;23.244;2023-10-31T16:12:04;93691.59;;;17.75;69.94
9277;BME280;4676;42.678;23.244;2023-10-31T16:14:32;93699.19;;;17.76;68.40
9277;BME280;4676;42.678;23.244;2023-10-31T16:17:01;93706.09;;;17.87;67.48
9277;BME280;4676;42.678;23.244;2023-10-31T16:19:28;93696.63;;;17.87;67.33
9277;BME280;4676;42.678;23.244;2023-10-31T16:21:55;93712.25;;;17.95;65.69
9277;BME280;4676;42.678;23.244;2023-10-31T16:24:22;93703.50;;;17.98;65.24
9277;BME280;4676;42.678;23.244;2023-10-31T16:26:49;93700.28;;;18.07;65.84
9277;BME280;4676;42.678;23.244;2023-10-31T16:29:16;93702.84;;;18.18;64.63
9277;BME280;4676;42.678;23.244;2023-10-31T16:31:43;93712.28;;;18.18;63.53
9277;BME280;4676;42.678;23.244;2023-10-31T16:34:11;93650.94;;;17.81;63.09
9277;BME280;4676;42.678;23.244;2023-10-31T16:36:38;93713.94;;;18.19;63.53
9277;BME280;4676;42.678;23.244;2023-10-31T16:39:05;93713.78;;;18.09;64.00
9277;BME280;4676;42.678;23.244;2023-10-31T16:41:32;93702.03;;;18.07;63.94
9277;BME280;4676;42.678;23.244;2023-10-31T16:43:59;93716.25;;;18.22;63.00
9277;BME280;4676;42.678;23.244;2023-10-31T16:46:26;93718.47;;;18.15;62.56
9277;BME280;4676;42.678;23.244;2023-10-31T16:48:52;93721.16;;;18.14;63.31
9277;BME280;4676;42.678;23.244;2023-10-31T16:51:21;93722.88;;;18.13;63.57
9277;BME280;4676;42.678;23.244;2023-10-31T16:53:48;93724.88;;;18.10;64.24
9277;BME280;4676;42.678;23.244;2023-10-31T16:56:15;93720.09;;;17.94;65.58
9277;BME280;4676;42.678;23.244;2023-10-31T16:58:42;93698.06;;;17.57;67.24
9277;BME280;4676;42.678;23.244;2023-10-31T17:01:11;93720.88;;;17.83;67.28
9277;BME280;4676;42.678;23.244;2023-10-31T17:03:37;93722.78;;;17.58;68.09
9277;BME280;4676;42.678;23.244;2023-10-31T17:06:05;93710.66;;;17.36;70.43
9277;BME280;4676;42.678;23.244;2023-10-31T17:08:33;93712.31;;;17.37;71.42
9277;BME280;4676;42.678;23.244;2023-10-31T17:11:01;93710.53;;;17.26;71.28
9277;BME280;4676;42.678;23.244;2023-10-31T17:13:27;93707.00;;;17.16;73.09
9277;BME280;4676;42.678;23.244;2023-10-31T17:15:57;93705.59;;;16.99;76.98
9277;BME280;4676;42.678;23.244;2023-10-31T17:18:24;93698.44;;;16.81;81.20
9277;BME280;4676;42.678;23.244;2023-10-31T17:20:51;93713.94;;;16.67;82.08
9277;BME280;4676;42.678;23.244;2023-10-31T17:23:18;93707.06;;;16.55;83.74
9277;BME280;4676;42.678;23.244;2023-10-31T17:25:46;93705.25;;;16.57;82.98
9277;BME280;4676;42.678;23.244;2023-10-31T17:28:13;93718.16;;;16.42;84.62
9277;BME280;4676;42.678;23.244;2023-10-31T17:30:40;93716.06;;;16.47;84.62
9277;BME280;4676;42.678;23.244;2023-10-31T17:33:06;93730.03;;;16.56;82.08
9277;BME280;4676;42.678;23.244;2023-10-31T17:35:34;93729.50;;;16.64;81.91
9277;BME280;4676;42.678;23.244;2023-10-31T17:38:00;93722.59;;;16.77;79.32
9277;BME280;4676;42.678;23.244;2023-10-31T17:40:27;93723.94;;;16.70;79.69
9277;BME280;4676;42.678;23.244;2023-10-31T17:42:57;93726.00;;;16.65;81.63
9277;BME280;4676;42.678;23.244;2023-10-31T17:45:23;93718.53;;;16.74;80.24
9277;BME280;4676;42.678;23.244;2023-10-31T17:47:50;93715.88;;;16.63;82.58
9277;BME280;4676;42.678;23.244;2023-10-31T17:50:17;93711.63;;;16.75;82.01
9277;BME280;4676;42.678;23.244;2023-10-31T17:52:44;93705.88;;;16.60;81.85
9277;BME280;4676;42.678;23.244;2023-10-31T17:55:11;93699.44;;;16.42;85.44
9277;BME280;4676;42.678;23.244;2023-10-31T17:57:41;93709.25;;;16.23;90.17
9277;BME280;4676;42.678;23.244;2023-10-31T18:00:10;93709.91;;;16.14;92.73
9277;BME280;4676;42.678;23.244;2023-10-31T18:02:37;93704.78;;;16.01;95.40
9277;BME280;4676;42.678;23.244;2023-10-31T18:05:04;93686.69;;;16.17;95.43
9277;BME280;4676;42.678;23.244;2023-10-31T18:07:34;93674.91;;;16.27;87.55
9277;BME280;4676;42.678;23.244;2023-10-31T18:10:00;93669.81;;;16.14;88.07
9277;BME280;4676;42.678;23.244;2023-10-31T18:12:27;93681.88;;;15.99;92.82
9277;BME280;4676;42.678;23.244;2023-10-31T18:14:54;93677.69;;;16.11;90.40
9277;BME280;4676;42.678;23.244;2023-10-31T18:17:22;93685.66;;;16.07;88.90
9277;BME280;4676;42.678;23.244;2023-10-31T18:19:49;93693.22;;;15.95;90.92
9277;BME280;4676;42.678;23.244;2023-10-31T18:22:15;93688.53;;;15.89;95.27
9277;BME280;4676;42.678;23.244;2023-10-31T18:24:42;93675.56;;;15.92;94.86
9277;BME280;4676;42.678;23.244;2023-10-31T18:27:11;93700.81;;;15.97;91.13
9277;BME280;4676;42.678;23.244;2023-10-31T18:29:38;93704.69;;;15.77;92.79
9277;BME280;4676;42.678;23.244;2023-10-31T18:32:05;93707.22;;;15.77;94.44
9277;BME280;4676;42.678;23.244;2023-10-31T18:34:38;93716.88;;;15.86;90.47
9277;BME280;4676;42.678;23.244;2023-10-31T18:37:05;93707.84;;;15.81;90.42
9277;BME280;4676;42.678;23.244;2023-10-31T18:39:32;93689.75;;;15.71;93.11
9277;BME280;4676;42.678;23.244;2023-10-31T18:41:58;93649.56;;;15.48;92.47
9277;BME280;4676;42.678;23.244;2023-10-31T18:44:25;93697.31;;;15.60;94.87
9277;BME280;4676;42.678;23.244;2023-10-31T18:46:52;93642.09;;;15.32;95.23
9277;BME280;4676;42.678;23.244;2023-10-31T18:49:22;93687.72;;;15.64;89.50
9277;BME280;4676;42.678;23.244;2023-10-31T18:51:50;93683.41;;;15.52;92.51
9277;BME280;4676;42.678;23.244;2023-10-31T18:54:17;93684.41;;;15.49;95.50
9277;BME280;4676;42.678;23.244;2023-10-31T18:56:44;93685.41;;;15.46;97.94
9277;BME280;4676;42.678;23.244;2023-10-31T18:59:11;93686.28;;;15.72;91.25
9277;BME280;4676;42.678;23.244;2023-10-31T19:01:37;93675.34;;;15.58;92.47
9277;BME280;4676;42.678;23.244;2023-10-31T19:04:04;93672.88;;;15.56;95.84
9277;BME280;4676;42.678;23.244;2023-10-31T19:06:32;93679.31;;;15.49;95.97
9277;BME280;4676;42.678;23.244;2023-10-31T19:09:01;93682.94;;;15.45;97.57
9277;BME280;4676;42.678;23.244;2023-10-31T19:11:30;93676.84;;;15.47;94.47
9277;BME280;4676;42.678;23.244;2023-10-31T19:13:57;93689.53;;;15.49;90.10
9277;BME280;4676;42.678;23.244;2023-10-31T19:16:23;93703.13;;;15.62;89.32
9277;BME280;4676;42.678;23.244;2023-10-31T19:18:52;93696.00;;;15.55;91.25
9277;BME280;4676;42.678;23.244;2023-10-31T19:21:18;93715.72;;;15.65;88.87
9277;BME280;4676;42.678;23.244;2023-10-31T19:23:45;93711.03;;;15.84;87.32
9277;BME280;4676;42.678;23.244;2023-10-31T19:26:13;93680.88;;;15.64;87.74
9277;BME280;4676;42.678;23.244;2023-10-31T19:28:40;93711.63;;;15.75;87.66
9277;BME280;4676;42.678;23.244;2023-10-31T19:31:07;93710.63;;;15.78;88.20
9277;BME280;4676;42.678;23.244;2023-10-31T19:33:34;93704.97;;;15.60;90.47
9277;BME280;4676;42.678;23.244;2023-10-31T19:36:01;93700.97;;;15.56;91.61
9277;BME280;4676;42.678;23.244;2023-10-31T19:38:28;93703.44;;;15.58;92.55
9277;BME280;4676;42.678;23.244;2023-10-31T19:40:55;93703.22;;;15.48;94.55
9277;BME280;4676;42.678;23.244;2023-10-31T19:43:23;93692.75;;;15.38;96.55
9277;BME280;4676;42.678;23.244;2023-10-31T19:45:50;93690.69;;;15.31;98.35
9277;BME280;4676;42.678;23.244;2023-10-31T19:48:17;93682.72;;;15.23;100.00
9277;BME280;4676;42.678;23.244;2023-10-31T19:50:43;93665.06;;;15.20;100.00
9277;BME280;4676;42.678;23.244;2023-10-31T19:53:10;93658.78;;;15.11;100.00
9277;BME280;4676;42.678;23.244;2023-10-31T19:55:37;93661.44;;;15.10;100.00
9277;BME280;4676;42.678;23.244;2023-10-31T19:58:03;93659.81;;;15.09;100.00
9277;BME280;4676;42.678;23.244;2023-10-31T20:00:31;93663.97;;;15.10;100.00
9277;BME280;4676;42.678;23.244;2023-10-31T20:02:58;93659.47;;;15.00;100.00
9277;BME280;4676;42.678;23.244;2023-10-31T20:05:25;93655.19;;;15.01;100.00
9277;BME280;4676;42.678;23.244;2023-10-31T20:07:51;93671.22;;;15.03;100.00
9277;BME280;4676;42.678;23.244;2023-10-31T20:10:18;93676.56;;;15.13;98.27
9277;BME280;4676;42.678;23.244;2023-10-31T20:12:46;93686.88;;;15.24;98.44
9277;BME280;4676;42.678;23.244;2023-10-31T20:15:12;93686.47;;;15.17;97.08
9277;BME280;4676;42.678;23.244;2023-10-31T20:17:41;93690.03;;;15.15;96.72
9277;BME280;4676;42.678;23.244;2023-10-31T20:20:08;93688.66;;;15.23;95.56
9277;BME280;4676;42.678;23.244;2023-10-31T20:22:36;93704.41;;;15.42;92.44
9277;BME280;4676;42.678;23.244;2023-10-31T20:25:03;93695.22;;;15.40;91.30
9277;BME280;4676;42.678;23.244;2023-10-31T20:27:30;93697.44;;;15.32;93.63
9277;BME280;4676;42.678;23.244;2023-10-31T20:29:56;93697.16;;;15.36;93.00
9277;BME280;4676;42.678;23.244;2023-10-31T20:32:23;93700.91;;;15.31;93.05
9277;BME280;4676;42.678;23.244;2023-10-31T20:34:51;93675.81;;;15.37;88.72
9277;BME280;4676;42.678;23.244;2023-10-31T20:37:19;93676.44;;;15.41;88.84
9277;BME280;4676;42.678;23.244;2023-10-31T20:39:46;93693.56;;;15.39;88.16
9277;BME280;4676;42.678;23.244;2023-10-31T20:42:13;93702.28;;;15.49;87.91
9277;BME280;4676;42.678;23.244;2023-10-31T20:44:40;93683.78;;;15.45;89.23
9277;BME280;4676;42.678;23.244;2023-10-31T20:47:07;93676.50;;;15.39;90.75
9277;BME280;4676;42.678;23.244;2023-10-31T20:49:35;93677.91;;;15.31;93.76
9277;BME280;4676;42.678;23.244;2023-10-31T20:52:03;93685.78;;;15.28;95.72
9277;BME280;4676;42.678;23.244;2023-10-31T20:54:30;93691.34;;;15.47;90.46
9277;BME280;4676;42.678;23.244;2023-10-31T20:56:57;93704.59;;;15.27;91.54
9277;BME280;4676;42.678;23.244;2023-10-31T20:59:24;93699.44;;;15.14;94.42
9277;BME280;4676;42.678;23.244;2023-10-31T21:01:51;93694.88;;;15.19;91.87
9277;BME280;4676;42.678;23.244;2023-10-31T21:04:17;93706.19;;;15.15;94.00
9277;BME280;4676;42.678;23.244;2023-10-31T21:06:44;93708.97;;;15.25;94.28
9277;BME280;4676;42.678;23.244;2023-10-31T21:09:12;93720.88;;;15.12;92.97
9277;BME280;4676;42.678;23.244;2023-10-31T21:11:40;93720.97;;;15.10;94.40
9277;BME280;4676;42.678;23.244;2023-10-31T21:14:06;93722.31;;;15.16;91.53
9277;BME280;4676;42.678;23.244;2023-10-31T21:16:33;93713.63;;;15.06;94.37
9277;BME280;4676;42.678;23.244;2023-10-31T21:19:00;93722.66;;;14.97;96.31
9277;BME280;4676;42.678;23.244;2023-10-31T21:21:26;93726.50;;;14.90;97.22
9277;BME280;4676;42.678;23.244;2023-10-31T21:23:53;93718.13;;;14.88;98.40
9277;BME280;4676;42.678;23.244;2023-10-31T21:26:21;93701.66;;;14.79;99.71
9277;BME280;4676;42.678;23.244;2023-10-31T21:28:48;93707.44;;;14.95;100.00
9277;BME280;4676;42.678;23.244;2023-10-31T21:31:14;93717.69;;;14.81;99.61
9277;BME280;4676;42.678;23.244;2023-10-31T21:33:41;93710.53;;;14.74;100.00
9277;BME280;4676;42.678;23.244;2023-10-31T21:36:09;93703.34;;;14.66;100.00
9277;BME280;4676;42.678;23.244;2023-10-31T21:38:36;93694.41;;;14.73;100.00
9277;BME280;4676;42.678;23.244;2023-10-31T21:41:03;93703.97;;;14.70;100.00
9277;BME280;4676;42.678;23.244;2023-10-31T21:43:32;93701.88;;;14.62;100.00
9277;BME280;4676;42.678;23.244;2023-10-31T21:45:59;93706.41;;;14.71;100.00
9277;BME280;4676;42.678;23.244;2023-10-31T21:48:26;93709.75;;;14.59;100.00
9277;BME280;4676;42.678;23.244;2023-10-31T21:50:53;93700.06;;;14.64;100.00
9277;BME280;4676;42.678;23.244;2023-10-31T21:53:19;93702.78;;;14.61;100.00
9277;BME280;4676;42.678;23.244;2023-10-31T21:55:45;93701.00;;;14.63;100.00
9277;BME280;4676;42.678;23.244;2023-10-31T21:58:12;93698.09;;;14.55;100.00
9277;BME280;4676;42.678;23.244;2023-10-31T22:00:40;93708.75;;;14.47;100.00
9277;BME280;4676;42.678;23.244;2023-10-31T22:03:08;93719.38;;;14.54;100.00
9277;BME280;4676;42.678;23.244;2023-10-31T22:05:35;93720.59;;;14.48;100.00
9277;BME280;4676;42.678;23.244;2023-10-31T22:08:02;93724.44;;;14.41;100.00
9277;BME280;4676;42.678;23.244;2023-10-31T22:10:29;93732.94;;;14.69;100.00
9277;BME280;4676;42.678;23.244;2023-10-31T22:12:56;93731.75;;;14.60;100.00
9277;BME280;4676;42.678;23.244;2023-10-31T22:15:23;93722.22;;;14.49;100.00
9277;BME280;4676;42.678;23.244;2023-10-31T22:17:51;93735.13;;;14.61;100.00
9277;BME280;4676;42.678;23.244;2023-10-31T22:20:18;93726.19;;;14.68;100.00
9277;BME280;4676;42.678;23.244;2023-10-31T22:22:45;93717.97;;;14.77;100.00
9277;BME280;4676;42.678;23.244;2023-10-31T22:25:11;93720.97;;;14.83;100.00
9277;BME280;4676;42.678;23.244;2023-10-31T22:27:38;93709.19;;;14.95;100.00
9277;BME280;4676;42.678;23.244;2023-10-31T22:30:06;93724.47;;;15.22;96.96
9277;BME280;4676;42.678;23.244;2023-10-31T22:32:35;93729.81;;;15.71;93.93
9277;BME280;4676;42.678;23.244;2023-10-31T22:35:04;93740.06;;;16.09;90.84
9277;BME280;4676;42.678;23.244;2023-10-31T22:37:30;93743.00;;;16.40;88.01
9277;BME280;4676;42.678;23.244;2023-10-31T22:40:00;93721.59;;;16.67;86.32
9277;BME280;4676;42.678;23.244;2023-10-31T22:42:26;93725.75;;;16.80;85.50
9277;BME280;4676;42.678;23.244;2023-10-31T22:44:55;93717.03;;;16.95;83.70
9277;BME280;4676;42.678;23.244;2023-10-31T22:47:21;93718.47;;;17.11;83.01
9277;BME280;4676;42.678;23.244;2023-10-31T22:49:48;93712.81;;;17.18;82.20
9277;BME280;4676;42.678;23.244;2023-10-31T22:52:16;93714.00;;;17.25;81.84
9277;BME280;4676;42.678;23.244;2023-10-31T22:54:43;93711.81;;;17.32;81.28
9277;BME280;4676;42.678;23.244;2023-10-31T22:57:09;93707.28;;;17.35;81.11
9277;BME280;4676;42.678;23.244;2023-10-31T22:59:36;93709.25;;;17.32;80.30
9277;BME280;4676;42.678;23.244;2023-10-31T23:02:03;93707.66;;;17.42;79.65
9277;BME280;4676;42.678;23.244;2023-10-31T23:04:30;93714.31;;;17.44;79.40
9277;BME280;4676;42.678;23.244;2023-10-31T23:06:57;93716.75;;;17.46;80.42
9277;BME280;4676;42.678;23.244;2023-10-31T23:09:26;93728.16;;;17.42;79.22
9277;BME280;4676;42.678;23.244;2023-10-31T23:11:52;93731.38;;;17.57;77.44
9277;BME280;4676;42.678;23.244;2023-10-31T23:14:19;93731.53;;;17.66;78.77
9277;BME280;4676;42.678;23.244;2023-10-31T23:16:46;93735.84;;;17.66;82.66
9277;BME280;4676;42.678;23.244;2023-10-31T23:19:12;93734.16;;;17.54;84.63
9277;BME280;4676;42.678;23.244;2023-10-31T23:21:38;93747.19;;;17.51;86.48
9277;BME280;4676;42.678;23.244;2023-10-31T23:24:06;93755.78;;;17.49;91.91
9277;BME280;4676;42.678;23.244;2023-10-31T23:26:37;93772.16;;;17.36;96.49
9277;BME280;4676;42.678;23.244;2023-10-31T23:29:06;93760.56;;;17.19;100.00
9277;BME280;4676;42.678;23.244;2023-10-31T23:31:33;93755.59;;;17.05;100.00
9277;BME280;4676;42.678;23.244;2023-10-31T23:34:00;93773.34;;;16.83;100.00
9277;BME280;4676;42.678;23.244;2023-10-31T23:36:27;93771.03;;;16.67;100.00
9277;BME280;4676;42.678;23.244;2023-10-31T23:38:54;93770.84;;;16.45;100.00
9277;BME280;4676;42.678;23.244;2023-10-31T23:41:20;93657.88;;;15.64;100.00
9277;BME280;4676;42.678;23.244;2023-10-31T23:43:48;93768.78;;;16.12;100.00
9277;BME280;4676;42.678;23.244;2023-10-31T23:46:15;93770.44;;;16.01;100.00
9277;BME280;4676;42.678;23.244;2023-10-31T23:48:42;93765.91;;;15.79;100.00
9277;BME280;4676;42.678;23.244;2023-10-31T23:51:08;93765.28;;;15.75;100.00
9277;BME280;4676;42.678;23.244;2023-10-31T23:53:35;93763.34;;;15.79;100.00
9277;BME280;4676;42.678;23.244;2023-10-31T23:56:02;93768.06;;;15.72;100.00
9277;BME280;4676;42.678;23.244;2023-10-31T23:58:29;93728.00;;;15.46;100.00
